createdAt,value
2019-05-20T00:00:32.787Z,23.50
2019-05-20T00:03:04.272Z,23.50
2019-05-20T00:05:35.438Z,23.50
2019-05-20T00:08:06.377Z,23.50
2019-05-20T00:10:37.138Z,23.60
2019-05-20T00:13:07.974Z,23.60
2019-05-20T00:15:38.764Z,23.60
2019-05-20T00:18:09.456Z,23.60
2019-05-20T00:20:40.369Z,23.60
2019-05-20T00:23:11.337Z,23.60
2019-05-20T00:25:42.031Z,23.50
2019-05-20T00:28:12.891Z,23.50
2019-05-20T00:30:43.839Z,23.50
2019-05-20T00:33:14.588Z,23.50
2019-05-20T00:35:45.426Z,23.50
2019-05-20T00:38:16.343Z,23.50
2019-05-20T00:40:47.050Z,23.60
2019-05-20T00:43:18.115Z,23.50
2019-05-20T00:45:49.117Z,23.60
2019-05-20T00:48:19.909Z,23.60
2019-05-20T00:50:50.803Z,23.50
2019-05-20T00:53:22.240Z,23.50
2019-05-20T00:55:53.321Z,23.60
2019-05-20T00:58:24.164Z,23.50
2019-05-20T01:00:54.865Z,23.50
2019-05-20T01:03:25.740Z,23.60
2019-05-20T01:05:56.474Z,23.60
2019-05-20T01:08:27.330Z,23.60
2019-05-20T01:10:58.119Z,23.70
2019-05-20T01:13:29.050Z,23.60
2019-05-20T01:15:59.809Z,23.70
2019-05-20T01:18:30.650Z,23.70
2019-05-20T01:21:01.401Z,23.60
2019-05-20T01:23:32.204Z,23.60
2019-05-20T01:26:03.140Z,23.60
2019-05-20T01:28:33.973Z,23.60
2019-05-20T01:31:05.004Z,23.60
2019-05-20T01:33:36.043Z,23.60
2019-05-20T01:36:06.896Z,23.60
2019-05-20T01:38:37.759Z,23.60
2019-05-20T01:41:08.641Z,23.60
2019-05-20T01:43:39.430Z,23.60
2019-05-20T01:46:10.144Z,23.60
2019-05-20T01:48:41.065Z,23.60
2019-05-20T01:51:11.925Z,23.50
2019-05-20T01:53:42.674Z,23.50
2019-05-20T01:56:13.633Z,23.50
2019-05-20T01:58:44.551Z,23.50
2019-05-20T02:01:15.393Z,23.60
2019-05-20T02:03:46.360Z,23.60
2019-05-20T02:06:17.277Z,23.60
2019-05-20T02:08:48.230Z,23.60
2019-05-20T02:11:18.950Z,23.60
2019-05-20T02:13:56.882Z,23.60
2019-05-20T02:16:27.850Z,23.60
2019-05-20T02:18:59.017Z,23.60
2019-05-20T02:21:29.881Z,23.60
2019-05-20T02:24:01.120Z,23.60
2019-05-20T02:26:32.131Z,23.60
2019-05-20T02:29:03.007Z,23.60
2019-05-20T02:31:34.175Z,23.60
2019-05-20T02:34:05.075Z,23.60
2019-05-20T02:36:35.909Z,23.60
2019-05-20T02:39:07.554Z,23.60
2019-05-20T02:41:38.500Z,23.60
2019-05-20T02:44:09.138Z,23.60
2019-05-20T02:46:39.829Z,23.60
2019-05-20T02:49:10.734Z,23.60
2019-05-20T02:51:41.231Z,23.60
2019-05-20T02:54:12.077Z,23.60
2019-05-20T02:56:42.825Z,23.60
2019-05-20T02:59:13.663Z,23.60
2019-05-20T03:01:44.874Z,23.70
2019-05-20T03:04:15.755Z,23.60
2019-05-20T03:06:46.578Z,23.70
2019-05-20T03:09:17.544Z,23.60
2019-05-20T03:11:48.550Z,23.60
2019-05-20T03:14:19.288Z,23.60
2019-05-20T03:16:50.505Z,23.60
2019-05-20T03:19:21.443Z,23.60
2019-05-20T03:21:52.617Z,23.60
2019-05-20T03:24:23.542Z,23.60
2019-05-20T03:26:54.203Z,23.60
2019-05-20T03:29:24.944Z,23.60
2019-05-20T03:31:55.854Z,23.60
2019-05-20T03:34:45.316Z,23.60
2019-05-20T03:36:59.487Z,23.60
2019-05-20T03:39:30.833Z,23.60
2019-05-20T03:42:02.057Z,23.50
2019-05-20T03:44:32.912Z,23.60
2019-05-20T03:47:03.751Z,23.60
2019-05-20T03:49:34.694Z,23.60
2019-05-20T03:52:05.561Z,23.60
2019-05-20T03:54:37.193Z,23.70
2019-05-20T03:57:08.275Z,23.70
2019-05-20T03:59:39.139Z,23.70
2019-05-20T04:02:09.998Z,23.60
2019-05-20T04:04:40.924Z,23.70
2019-05-20T04:07:11.761Z,23.70
2019-05-20T04:09:42.698Z,23.60
2019-05-20T04:12:13.540Z,23.60
2019-05-20T04:14:44.360Z,23.70
2019-05-20T04:17:15.241Z,23.70
2019-05-20T04:19:46.054Z,23.60
2019-05-20T04:22:16.688Z,23.70
2019-05-20T04:24:47.517Z,23.60
2019-05-20T04:27:18.368Z,23.60
2019-05-20T04:29:49.563Z,23.60
2019-05-20T04:32:20.250Z,23.60
2019-05-20T04:34:51.075Z,23.60
2019-05-20T04:37:21.935Z,23.60
2019-05-20T04:39:53.056Z,23.60
2019-05-20T04:42:24.315Z,23.60
2019-05-20T04:44:55.232Z,23.60
2019-05-20T04:47:26.497Z,23.60
2019-05-20T04:49:57.326Z,23.70
2019-05-20T04:52:28.161Z,23.80
2019-05-20T04:54:59.233Z,23.80
2019-05-20T04:57:30.148Z,23.80
2019-05-20T05:00:00.805Z,23.90
2019-05-20T05:02:31.747Z,23.90
2019-05-20T05:05:02.761Z,24.00
2019-05-20T05:07:33.724Z,24.00
2019-05-20T05:10:05.088Z,23.90
2019-05-20T05:12:35.999Z,23.90
2019-05-20T05:15:08.516Z,23.80
2019-05-20T05:17:39.655Z,23.80
2019-05-20T05:20:18.069Z,23.80
2019-05-20T05:22:43.319Z,23.80
2019-05-20T05:25:14.486Z,23.80
2019-05-20T05:27:45.323Z,23.80
2019-05-20T05:30:16.263Z,23.80
2019-05-20T05:32:47.227Z,23.90
2019-05-20T05:35:18.152Z,24.00
2019-05-20T05:37:49.278Z,24.00
2019-05-20T05:40:21.972Z,23.90
2019-05-20T05:42:52.773Z,23.90
2019-05-20T05:45:30.627Z,23.90
2019-05-20T05:48:01.506Z,23.90
2019-05-20T05:50:32.324Z,23.80
2019-05-20T05:53:02.860Z,23.80
2019-05-20T05:55:33.688Z,23.80
2019-05-20T05:58:08.201Z,23.90
2019-05-20T06:00:36.848Z,23.80
2019-05-20T06:03:07.298Z,23.80
2019-05-20T06:05:37.955Z,23.80
2019-05-20T06:08:08.642Z,23.80
2019-05-20T06:10:39.611Z,23.80
2019-05-20T06:13:10.508Z,23.80
2019-05-20T06:15:41.525Z,23.80
2019-05-20T06:18:12.367Z,23.80
2019-05-20T06:20:43.143Z,23.80
2019-05-20T06:23:14.106Z,23.80
2019-05-20T06:25:45.137Z,23.80
2019-05-20T06:28:16.145Z,23.80
2019-05-20T06:30:47.432Z,23.90
2019-05-20T06:33:18.221Z,23.90
2019-05-20T06:35:49.273Z,23.90
2019-05-20T06:38:39.061Z,23.90
2019-05-20T06:41:09.684Z,23.80
2019-05-20T06:43:40.947Z,23.80
2019-05-20T06:46:11.870Z,23.80
2019-05-20T06:48:42.833Z,23.80
2019-05-20T06:51:13.868Z,23.80
2019-05-20T06:53:44.618Z,23.80
2019-05-20T06:56:15.563Z,23.80
2019-05-20T06:58:46.483Z,23.80
2019-05-20T07:01:17.312Z,23.80
2019-05-20T07:03:47.965Z,23.80
2019-05-20T07:06:18.968Z,23.80
2019-05-20T07:08:49.832Z,23.80
2019-05-20T07:11:20.821Z,23.70
2019-05-20T07:13:51.534Z,23.80
2019-05-20T07:16:22.372Z,23.70
2019-05-20T07:18:53.392Z,23.70
2019-05-20T07:21:24.335Z,23.70
2019-05-20T07:23:55.149Z,23.80
2019-05-20T07:26:25.927Z,23.80
2019-05-20T07:28:56.643Z,23.80
2019-05-20T07:31:27.127Z,23.80
2019-05-20T07:33:57.695Z,23.80
2019-05-20T07:36:28.741Z,23.80
2019-05-20T07:38:59.935Z,23.80
2019-05-20T07:41:30.970Z,23.80
2019-05-20T07:44:01.758Z,23.80
2019-05-20T07:46:32.679Z,23.80
2019-05-20T07:49:03.673Z,23.80
2019-05-20T07:51:34.530Z,23.80
2019-05-20T07:54:05.464Z,23.80
2019-05-20T07:56:39.345Z,23.80
2019-05-20T07:59:10.247Z,23.80
2019-05-20T08:01:41.034Z,23.80
2019-05-20T08:04:12.192Z,23.70
2019-05-20T08:06:43.156Z,23.80
2019-05-20T08:09:14.364Z,23.80
2019-05-20T08:11:45.661Z,23.70
2019-05-20T08:14:16.437Z,23.70
2019-05-20T08:16:47.373Z,23.70
2019-05-20T08:19:18.421Z,23.70
2019-05-20T08:21:49.419Z,23.80
2019-05-20T08:24:21.340Z,23.80
2019-05-20T08:26:52.342Z,23.80
2019-05-20T08:29:23.297Z,23.80
2019-05-20T08:31:54.197Z,23.80
2019-05-20T08:34:24.995Z,23.70
2019-05-20T08:36:55.735Z,23.80
2019-05-20T08:39:26.578Z,23.70
2019-05-20T08:41:57.465Z,23.70
2019-05-20T08:44:28.345Z,23.70
2019-05-20T08:46:59.214Z,23.70
2019-05-20T08:49:30.663Z,23.70
2019-05-20T08:52:02.271Z,23.70
2019-05-20T08:54:33.410Z,23.70
2019-05-20T08:57:04.698Z,23.70
2019-05-20T08:59:35.743Z,23.70
2019-05-20T09:02:06.645Z,23.80
2019-05-20T09:04:37.462Z,23.70
2019-05-20T09:07:08.340Z,23.70
2019-05-20T09:09:39.792Z,23.80
2019-05-20T09:12:10.632Z,23.80
2019-05-20T09:14:41.770Z,23.80
2019-05-20T09:17:12.557Z,23.80
2019-05-20T09:19:46.869Z,23.80
2019-05-20T09:22:16.125Z,23.80
2019-05-20T09:24:47.401Z,23.80
2019-05-20T09:27:18.703Z,23.80
2019-05-20T09:29:49.725Z,23.80
2019-05-20T09:32:20.866Z,23.80
2019-05-20T09:34:51.792Z,23.80
2019-05-20T09:37:22.654Z,23.80
2019-05-20T09:39:53.648Z,23.80
2019-05-20T09:42:24.621Z,23.80
2019-05-20T09:44:55.529Z,23.80
2019-05-20T09:47:26.501Z,23.80
2019-05-20T09:49:57.529Z,23.80
2019-05-20T09:52:28.548Z,23.80
2019-05-20T09:54:59.515Z,23.70
2019-05-20T09:57:30.370Z,23.70
2019-05-20T10:00:01.487Z,23.70
2019-05-20T10:02:37.785Z,23.70
2019-05-20T10:05:05.005Z,23.70
2019-05-20T10:07:35.744Z,23.80
2019-05-20T10:10:06.520Z,23.80
2019-05-20T10:12:45.879Z,23.80
2019-05-20T10:15:10.383Z,23.80
2019-05-20T10:17:41.282Z,23.80
2019-05-20T10:20:12.342Z,23.80
2019-05-20T10:22:43.183Z,23.80
2019-05-20T10:25:14.284Z,23.80
2019-05-20T10:27:45.314Z,23.80
2019-05-20T10:30:16.055Z,23.80
2019-05-20T10:32:46.856Z,23.80
2019-05-20T10:35:17.576Z,23.80
2019-05-20T10:37:48.564Z,23.80
2019-05-20T10:40:19.436Z,23.80
2019-05-20T10:42:50.460Z,23.80
2019-05-20T10:45:21.355Z,23.80
2019-05-20T10:47:52.103Z,23.80
2019-05-20T10:50:22.917Z,23.80
2019-05-20T10:52:53.883Z,23.80
2019-05-20T10:55:25.065Z,23.80
2019-05-20T10:57:55.880Z,23.80
2019-05-20T11:00:26.879Z,23.80
2019-05-20T11:02:57.928Z,23.80
2019-05-20T11:05:28.635Z,23.80
2019-05-20T11:07:59.553Z,23.80
2019-05-20T11:10:30.444Z,23.80
2019-05-20T11:13:01.649Z,23.80
2019-05-20T11:15:32.382Z,23.80
2019-05-20T11:18:03.134Z,23.80
2019-05-20T11:20:33.906Z,23.80
2019-05-20T11:23:04.767Z,23.80
2019-05-20T11:25:35.592Z,23.80
2019-05-20T11:28:06.659Z,23.80
2019-05-20T11:30:37.645Z,23.80
2019-05-20T11:33:08.458Z,23.80
2019-05-20T11:35:39.457Z,23.80
2019-05-20T11:38:10.507Z,23.80
2019-05-20T11:40:41.439Z,23.80
2019-05-20T11:43:12.381Z,23.80
2019-05-20T11:45:43.050Z,23.80
2019-05-20T11:48:13.944Z,23.80
2019-05-20T11:50:45.031Z,23.80
2019-05-20T11:53:16.034Z,23.80
2019-05-20T11:55:47.036Z,23.80
2019-05-20T11:58:17.904Z,23.80
2019-05-20T12:00:48.937Z,23.80
2019-05-20T12:03:19.838Z,23.90
2019-05-20T12:05:50.573Z,23.80
2019-05-20T12:08:21.159Z,23.80
2019-05-20T12:10:51.957Z,23.80
2019-05-20T12:13:22.953Z,23.80
2019-05-20T12:15:53.679Z,23.80
2019-05-20T12:18:24.388Z,23.80
2019-05-20T12:20:55.402Z,23.80
2019-05-20T12:23:26.396Z,23.80
2019-05-20T12:25:57.286Z,23.80
2019-05-20T12:28:28.418Z,23.80
2019-05-20T12:30:59.360Z,23.80
2019-05-20T12:33:30.329Z,23.80
2019-05-20T12:36:01.018Z,23.80
2019-05-20T12:38:32.071Z,23.80
2019-05-20T12:41:03.060Z,23.70
2019-05-20T12:43:34.119Z,23.70
2019-05-20T12:46:05.013Z,23.80
2019-05-20T12:48:36.023Z,23.80
2019-05-20T12:51:06.928Z,23.80
2019-05-20T12:53:37.791Z,23.80
2019-05-20T12:56:08.702Z,23.80
2019-05-20T12:58:39.556Z,23.80
2019-05-20T13:01:10.507Z,23.90
2019-05-20T13:03:41.308Z,23.80
2019-05-20T13:06:12.177Z,23.90
2019-05-20T13:08:43.206Z,23.90
2019-05-20T13:11:16.280Z,23.80
2019-05-20T13:13:47.154Z,23.80
2019-05-20T13:16:18.037Z,23.80
2019-05-20T13:18:56.161Z,23.90
2019-05-20T13:21:21.432Z,23.80
2019-05-20T13:23:52.240Z,23.80
2019-05-20T13:26:22.824Z,23.80
2019-05-20T13:28:53.571Z,23.80
2019-05-20T13:31:24.522Z,23.80
2019-05-20T13:33:55.581Z,23.80
2019-05-20T13:36:26.619Z,23.80
2019-05-20T13:38:57.334Z,23.80
2019-05-20T13:41:28.201Z,23.80
2019-05-20T13:43:59.018Z,23.80
2019-05-20T13:46:30.121Z,23.80
2019-05-20T13:49:01.008Z,23.80
2019-05-20T13:51:32.005Z,23.80
2019-05-20T13:54:02.864Z,23.80
2019-05-20T13:56:33.561Z,23.80
2019-05-20T13:59:04.203Z,23.80
2019-05-20T14:01:35.136Z,23.80
2019-05-20T14:04:06.198Z,23.80
2019-05-20T14:06:37.218Z,23.80
2019-05-20T14:09:08.428Z,23.80
2019-05-20T14:11:39.709Z,23.80
2019-05-20T14:14:14.175Z,23.80
2019-05-20T14:16:43.664Z,23.80
2019-05-20T14:19:14.471Z,23.80
2019-05-20T14:21:45.437Z,23.80
2019-05-20T14:24:16.538Z,23.80
2019-05-20T14:26:47.353Z,23.80
2019-05-20T14:29:18.414Z,23.80
2019-05-20T14:31:49.238Z,23.80
2019-05-20T14:34:20.014Z,23.80
2019-05-20T14:36:53.032Z,23.80
2019-05-20T14:39:23.272Z,23.80
2019-05-20T14:41:54.234Z,23.80
2019-05-20T14:44:25.173Z,23.80
2019-05-20T14:46:56.137Z,23.80
2019-05-20T14:49:27.080Z,23.80
2019-05-20T14:51:57.800Z,23.80
2019-05-20T14:54:28.750Z,23.80
2019-05-20T14:56:59.762Z,23.80
2019-05-20T14:59:30.725Z,23.80
2019-05-20T15:02:01.752Z,23.80
2019-05-20T15:04:32.781Z,23.80
2019-05-20T15:07:03.816Z,23.80
2019-05-20T15:09:34.631Z,23.80
2019-05-20T15:12:05.502Z,23.80
2019-05-20T15:14:36.779Z,23.80
2019-05-20T15:17:08.024Z,23.80
2019-05-20T15:19:39.338Z,23.80
2019-05-20T15:22:10.456Z,23.80
2019-05-20T15:24:41.643Z,23.80
2019-05-20T15:27:12.385Z,23.80
2019-05-20T15:29:44.823Z,23.80
2019-05-20T15:32:16.164Z,23.80
2019-05-20T15:34:47.005Z,23.80
2019-05-20T15:37:21.181Z,23.80
2019-05-20T15:39:52.106Z,23.80
2019-05-20T15:42:22.994Z,23.90
2019-05-20T15:44:53.913Z,23.90
2019-05-20T15:47:25.999Z,23.90
2019-05-20T15:49:57.557Z,23.90
2019-05-20T15:52:28.858Z,24.00
2019-05-20T15:55:01.152Z,23.90
2019-05-20T15:57:32.149Z,23.90
2019-05-20T16:00:02.981Z,23.90
2019-05-20T16:02:33.763Z,23.90
2019-05-20T16:05:04.461Z,23.90
2019-05-20T16:07:35.589Z,23.90
2019-05-20T16:10:06.644Z,23.90
2019-05-20T16:12:37.500Z,23.80
2019-05-20T16:15:08.481Z,23.90
2019-05-20T16:17:39.456Z,23.80
2019-05-20T16:20:10.125Z,23.80
2019-05-20T16:22:40.902Z,23.90
2019-05-20T16:25:11.741Z,23.90
2019-05-20T16:27:42.596Z,23.80
2019-05-20T16:30:14.025Z,23.80
2019-05-20T16:32:44.871Z,23.80
2019-05-20T16:35:15.677Z,23.90
2019-05-20T16:37:46.662Z,23.90
2019-05-20T16:40:17.968Z,23.90
2019-05-20T16:42:48.954Z,24.00
2019-05-20T16:45:19.836Z,24.00
2019-05-20T16:47:50.970Z,24.00
2019-05-20T16:50:21.833Z,24.10
2019-05-20T16:52:53.628Z,24.10
2019-05-20T16:55:24.715Z,24.20
2019-05-20T16:57:55.638Z,24.20
2019-05-20T17:00:32.037Z,24.20
2019-05-20T17:02:59.137Z,24.20
2019-05-20T17:05:30.055Z,24.20
2019-05-20T17:08:00.848Z,24.20
2019-05-20T17:10:31.980Z,24.20
2019-05-20T17:13:02.975Z,24.20
2019-05-20T17:15:33.719Z,24.20
2019-05-20T17:18:04.786Z,24.20
2019-05-20T17:20:35.511Z,24.30
2019-05-20T17:23:06.435Z,24.40
2019-05-20T17:25:37.467Z,24.40
2019-05-20T17:28:08.389Z,24.40
2019-05-20T17:30:45.565Z,24.40
2019-05-20T17:33:12.785Z,24.40
2019-05-20T17:35:44.411Z,24.30
2019-05-20T17:38:19.664Z,24.30
2019-05-20T17:40:51.176Z,24.20
2019-05-20T17:43:25.891Z,24.20
2019-05-20T17:46:02.540Z,24.20
2019-05-20T17:48:39.651Z,24.10
2019-05-20T17:51:13.578Z,24.20
2019-05-20T17:53:46.294Z,24.10
2019-05-20T17:56:20.279Z,24.10
2019-05-20T17:58:57.184Z,24.10
2019-05-20T18:01:31.787Z,24.10
2019-05-20T18:04:05.753Z,24.10
2019-05-20T18:06:39.916Z,24.10
2019-05-20T18:09:13.484Z,24.00
2019-05-20T18:11:46.835Z,24.00
2019-05-20T18:14:19.995Z,24.00
2019-05-20T18:16:53.139Z,24.00
2019-05-20T18:19:26.718Z,24.00
2019-05-20T18:22:00.765Z,24.10
2019-05-20T18:24:34.235Z,24.10
2019-05-20T18:27:07.070Z,24.10
2019-05-20T18:29:40.544Z,24.10
2019-05-20T18:32:13.031Z,24.10
2019-05-20T18:34:46.868Z,24.10
2019-05-20T18:37:18.976Z,24.10
2019-05-20T18:39:53.644Z,24.10
2019-05-20T18:42:29.361Z,24.10
2019-05-20T18:45:02.863Z,24.10
2019-05-20T18:47:35.033Z,24.00
2019-05-20T18:50:08.537Z,24.10
2019-05-20T18:52:43.553Z,24.00
2019-05-20T18:55:14.870Z,24.10
2019-05-20T18:57:46.101Z,24.00
2019-05-20T19:00:17.754Z,24.00
2019-05-20T19:02:49.700Z,24.00
2019-05-20T19:05:20.965Z,24.00
2019-05-20T19:07:52.372Z,24.00
2019-05-20T19:10:25.236Z,24.10
2019-05-20T19:12:56.986Z,24.00
2019-05-20T19:15:31.993Z,24.00
2019-05-20T19:18:04.025Z,24.00
2019-05-20T19:20:35.424Z,24.00
2019-05-20T19:23:09.539Z,24.10
2019-05-20T19:25:44.043Z,24.10
2019-05-20T19:28:16.318Z,24.10
2019-05-20T19:30:48.754Z,24.00
2019-05-20T19:33:21.182Z,24.10
2019-05-20T19:35:52.885Z,24.00
2019-05-20T19:38:24.412Z,24.00
2019-05-20T19:40:56.869Z,24.00
2019-05-20T19:43:29.889Z,24.10
2019-05-20T19:46:04.144Z,24.10
2019-05-20T19:48:35.850Z,24.10
2019-05-20T19:51:10.140Z,24.00
2019-05-20T19:53:42.037Z,24.00
2019-05-20T19:56:14.615Z,24.00
2019-05-20T19:58:46.190Z,24.00
2019-05-20T20:01:17.483Z,24.00
2019-05-20T20:03:49.199Z,24.10
2019-05-20T20:06:36.453Z,24.10
2019-05-20T20:09:15.141Z,24.10
2019-05-20T20:11:58.319Z,24.10
2019-05-20T20:14:42.238Z,24.10
2019-05-20T20:17:26.825Z,24.10
2019-05-20T20:20:02.826Z,24.10
2019-05-20T20:22:35.867Z,24.10
2019-05-20T20:25:17.873Z,24.10
2019-05-20T20:27:51.459Z,24.10
2019-05-20T20:30:26.835Z,24.10
2019-05-20T20:32:59.202Z,24.10
2019-05-20T20:35:38.227Z,24.00
2019-05-20T20:38:05.178Z,24.10
2019-05-20T20:40:37.267Z,24.00
2019-05-20T20:43:19.209Z,24.10
2019-05-20T20:45:51.307Z,24.00
2019-05-20T20:48:25.560Z,24.00
2019-05-20T20:51:07.739Z,24.00
2019-05-20T20:53:43.977Z,24.00
2019-05-20T20:56:24.813Z,24.00
2019-05-20T20:58:50.884Z,24.00
2019-05-20T21:01:23.503Z,24.00
2019-05-20T21:03:55.458Z,24.00
2019-05-20T21:06:27.467Z,24.00
2019-05-20T21:08:58.819Z,24.00
2019-05-20T21:11:30.933Z,24.00
2019-05-20T21:14:02.891Z,24.00
2019-05-20T21:16:34.322Z,24.00
2019-05-20T21:19:04.957Z,24.10
2019-05-20T21:21:35.729Z,24.10
2019-05-20T21:24:09.204Z,24.00
2019-05-20T21:26:47.144Z,24.10
2019-05-20T21:29:20.682Z,24.10
2019-05-20T21:31:53.825Z,24.10
2019-05-20T21:34:25.782Z,24.10
2019-05-20T21:36:57.741Z,24.00
2019-05-20T21:39:29.492Z,24.00
2019-05-20T21:42:00.642Z,24.00
2019-05-20T21:44:31.948Z,24.00
2019-05-20T21:47:03.433Z,24.00
2019-05-20T21:49:36.241Z,24.00
2019-05-20T21:52:09.846Z,24.00
2019-05-20T21:54:41.692Z,24.00
2019-05-20T21:57:13.079Z,24.00
2019-05-20T21:59:44.237Z,23.90
2019-05-20T22:02:15.154Z,24.00
2019-05-20T22:04:46.190Z,24.00
2019-05-20T22:07:16.681Z,24.00
2019-05-20T22:09:47.181Z,24.00
2019-05-20T22:12:17.635Z,24.00
2019-05-20T22:14:48.119Z,24.00
2019-05-20T22:17:20.022Z,24.00
2019-05-20T22:19:51.444Z,24.00
2019-05-20T22:22:28.752Z,24.00
2019-05-20T22:24:59.422Z,24.00
2019-05-20T22:27:30.015Z,24.00
2019-05-20T22:30:00.874Z,24.00
2019-05-20T22:32:31.897Z,24.00
2019-05-20T22:35:03.060Z,24.00
2019-05-20T22:37:34.116Z,24.00
2019-05-20T22:40:05.196Z,24.00
2019-05-20T22:42:36.148Z,24.00
2019-05-20T22:45:06.925Z,24.00
2019-05-20T22:47:38.059Z,24.00
2019-05-20T22:50:08.526Z,24.00
2019-05-20T22:52:38.984Z,24.00
2019-05-20T22:55:10.734Z,24.00
2019-05-20T22:57:41.842Z,24.00
2019-05-20T23:00:12.809Z,24.00
2019-05-20T23:02:43.656Z,24.00
2019-05-20T23:05:14.825Z,24.00
2019-05-20T23:07:45.641Z,24.10
2019-05-20T23:10:17.291Z,24.00
2019-05-20T23:12:48.038Z,24.10
2019-05-20T23:15:19.008Z,24.10
2019-05-20T23:17:49.852Z,24.00
2019-05-20T23:20:20.485Z,24.10
2019-05-20T23:22:51.307Z,24.10
2019-05-20T23:25:22.453Z,24.00
2019-05-20T23:27:53.690Z,24.10
2019-05-20T23:30:24.684Z,24.00
2019-05-20T23:32:55.565Z,24.00
2019-05-20T23:35:26.428Z,24.00
2019-05-20T23:37:57.259Z,24.00
2019-05-20T23:40:28.017Z,24.00
2019-05-20T23:42:58.835Z,24.00
2019-05-20T23:45:30.177Z,24.00
2019-05-20T23:48:00.918Z,24.00
2019-05-20T23:50:31.759Z,24.00
2019-05-20T23:53:02.501Z,24.00
2019-05-20T23:55:33.326Z,24.00
2019-05-20T23:58:04.118Z,24.00
